sensor_id;sensor_type;location;lat;lon;timestamp;P1;durP1;ratioP1;P2;durP2;ratioP2
78610;SDS011;67932;50.474;4.436;2023-03-23T00:00:50;4.88;;;3.08;;
78610;SDS011;67932;50.474;4.436;2023-03-23T00:03:16;4.55;;;2.80;;
78610;SDS011;67932;50.474;4.436;2023-03-23T00:05:42;4.60;;;2.90;;
78610;SDS011;67932;50.474;4.436;2023-03-23T00:08:16;5.07;;;2.90;;
78610;SDS011;67932;50.474;4.436;2023-03-23T00:10:42;4.97;;;2.75;;
78610;SDS011;67932;50.474;4.436;2023-03-23T00:13:08;4.95;;;2.92;;
78610;SDS011;67932;50.474;4.436;2023-03-23T00:15:36;5.07;;;2.30;;
78610;SDS011;67932;50.474;4.436;2023-03-23T00:18:06;3.83;;;2.50;;
78610;SDS011;67932;50.474;4.436;2023-03-23T00:20:32;6.88;;;2.70;;
78610;SDS011;67932;50.474;4.436;2023-03-23T00:23:06;3.78;;;2.92;;
78610;SDS011;67932;50.474;4.436;2023-03-23T00:25:32;5.15;;;2.85;;
78610;SDS011;67932;50.474;4.436;2023-03-23T00:27:58;3.63;;;2.65;;
78610;SDS011;67932;50.474;4.436;2023-03-23T00:30:25;5.07;;;2.83;;
78610;SDS011;67932;50.474;4.436;2023-03-23T00:32:51;6.47;;;3.33;;
78610;SDS011;67932;50.474;4.436;2023-03-23T00:35:17;5.38;;;3.10;;
78610;SDS011;67932;50.474;4.436;2023-03-23T00:37:44;4.85;;;3.05;;
78610;SDS011;67932;50.474;4.436;2023-03-23T00:40:10;3.90;;;3.10;;
78610;SDS011;67932;50.474;4.436;2023-03-23T00:42:37;4.72;;;2.90;;
78610;SDS011;67932;50.474;4.436;2023-03-23T00:45:04;5.20;;;2.90;;
78610;SDS011;67932;50.474;4.436;2023-03-23T00:47:36;5.25;;;3.10;;
78610;SDS011;67932;50.474;4.436;2023-03-23T00:50:02;5.13;;;3.22;;
78610;SDS011;67932;50.474;4.436;2023-03-23T00:52:30;7.18;;;3.17;;
78610;SDS011;67932;50.474;4.436;2023-03-23T00:54:56;4.35;;;2.92;;
78610;SDS011;67932;50.474;4.436;2023-03-23T00:57:22;5.70;;;3.03;;
78610;SDS011;67932;50.474;4.436;2023-03-23T00:59:52;5.15;;;3.30;;
78610;SDS011;67932;50.474;4.436;2023-03-23T01:02:18;5.00;;;2.80;;
78610;SDS011;67932;50.474;4.436;2023-03-23T01:04:44;4.60;;;3.15;;
78610;SDS011;67932;50.474;4.436;2023-03-23T01:07:10;5.53;;;2.97;;
78610;SDS011;67932;50.474;4.436;2023-03-23T01:09:43;8.65;;;4.28;;
78610;SDS011;67932;50.474;4.436;2023-03-23T01:12:10;4.95;;;3.30;;
78610;SDS011;67932;50.474;4.436;2023-03-23T01:14:36;5.00;;;3.33;;
78610;SDS011;67932;50.474;4.436;2023-03-23T01:17:02;4.80;;;3.17;;
78610;SDS011;67932;50.474;4.436;2023-03-23T01:19:29;6.15;;;3.28;;
78610;SDS011;67932;50.474;4.436;2023-03-23T01:21:55;5.60;;;3.85;;
78610;SDS011;67932;50.474;4.436;2023-03-23T01:24:21;5.47;;;3.42;;
78610;SDS011;67932;50.474;4.436;2023-03-23T01:26:47;6.32;;;3.53;;
78610;SDS011;67932;50.474;4.436;2023-03-23T01:29:13;6.32;;;3.70;;
78610;SDS011;67932;50.474;4.436;2023-03-23T01:31:39;8.82;;;3.40;;
78610;SDS011;67932;50.474;4.436;2023-03-23T01:34:07;4.40;;;3.38;;
78610;SDS011;67932;50.474;4.436;2023-03-23T01:36:33;5.95;;;3.08;;
78610;SDS011;67932;50.474;4.436;2023-03-23T01:39:00;3.88;;;2.67;;
78610;SDS011;67932;50.474;4.436;2023-03-23T01:41:28;3.13;;;2.15;;
78610;SDS011;67932;50.474;4.436;2023-03-23T01:43:56;6.05;;;2.80;;
78610;SDS011;67932;50.474;4.436;2023-03-23T01:46:22;6.13;;;3.85;;
78610;SDS011;67932;50.474;4.436;2023-03-23T01:48:49;4.35;;;3.03;;
78610;SDS011;67932;50.474;4.436;2023-03-23T01:51:16;5.72;;;2.70;;
78610;SDS011;67932;50.474;4.436;2023-03-23T01:53:47;4.25;;;2.63;;
78610;SDS011;67932;50.474;4.436;2023-03-23T01:56:14;4.75;;;2.83;;
78610;SDS011;67932;50.474;4.436;2023-03-23T01:58:44;3.45;;;2.75;;
78610;SDS011;67932;50.474;4.436;2023-03-23T02:01:12;3.97;;;2.45;;
78610;SDS011;67932;50.474;4.436;2023-03-23T02:03:54;4.68;;;2.67;;
78610;SDS011;67932;50.474;4.436;2023-03-23T02:06:21;4.57;;;2.42;;
78610;SDS011;67932;50.474;4.436;2023-03-23T02:08:48;3.92;;;3.00;;
78610;SDS011;67932;50.474;4.436;2023-03-23T02:11:18;3.55;;;2.30;;
78610;SDS011;67932;50.474;4.436;2023-03-23T02:13:45;5.10;;;2.22;;
78610;SDS011;67932;50.474;4.436;2023-03-23T02:29:06;3.58;;;2.33;;
78610;SDS011;67932;50.474;4.436;2023-03-23T02:34:18;4.65;;;2.35;;
78610;SDS011;67932;50.474;4.436;2023-03-23T02:36:56;4.05;;;2.20;;
78610;SDS011;67932;50.474;4.436;2023-03-23T02:39:32;3.55;;;2.40;;
78610;SDS011;67932;50.474;4.436;2023-03-23T02:42:07;3.67;;;2.20;;
78610;SDS011;67932;50.474;4.436;2023-03-23T02:44:34;3.03;;;2.30;;
78610;SDS011;67932;50.474;4.436;2023-03-23T02:47:03;3.05;;;2.00;;
78610;SDS011;67932;50.474;4.436;2023-03-23T02:49:31;3.45;;;2.40;;
78610;SDS011;67932;50.474;4.436;2023-03-23T02:51:58;3.90;;;2.33;;
78610;SDS011;67932;50.474;4.436;2023-03-23T02:54:25;4.05;;;2.40;;
78610;SDS011;67932;50.474;4.436;2023-03-23T02:56:52;4.13;;;2.67;;
78610;SDS011;67932;50.474;4.436;2023-03-23T02:59:18;2.40;;;2.10;;
78610;SDS011;67932;50.474;4.436;2023-03-23T03:01:46;4.03;;;2.53;;
78610;SDS011;67932;50.474;4.436;2023-03-23T03:04:14;5.13;;;2.25;;
78610;SDS011;67932;50.474;4.436;2023-03-23T03:06:45;2.95;;;2.10;;
78610;SDS011;67932;50.474;4.436;2023-03-23T03:09:19;7.28;;;2.53;;
78610;SDS011;67932;50.474;4.436;2023-03-23T03:11:48;3.33;;;2.22;;
78610;SDS011;67932;50.474;4.436;2023-03-23T03:17:16;2.92;;;1.70;;
78610;SDS011;67932;50.474;4.436;2023-03-23T03:19:47;2.55;;;1.80;;
78610;SDS011;67932;50.474;4.436;2023-03-23T03:22:15;6.10;;;1.98;;
78610;SDS011;67932;50.474;4.436;2023-03-23T03:24:42;4.43;;;2.30;;
78610;SDS011;67932;50.474;4.436;2023-03-23T03:27:10;3.20;;;1.52;;
78610;SDS011;67932;50.474;4.436;2023-03-23T03:29:37;2.63;;;1.88;;
78610;SDS011;67932;50.474;4.436;2023-03-23T03:32:06;3.08;;;2.10;;
78610;SDS011;67932;50.474;4.436;2023-03-23T03:34:34;3.17;;;1.92;;
78610;SDS011;67932;50.474;4.436;2023-03-23T03:37:00;3.42;;;1.80;;
78610;SDS011;67932;50.474;4.436;2023-03-23T03:39:29;5.20;;;1.60;;
78610;SDS011;67932;50.474;4.436;2023-03-23T03:41:55;2.30;;;1.52;;
78610;SDS011;67932;50.474;4.436;2023-03-23T03:44:21;2.80;;;1.42;;
78610;SDS011;67932;50.474;4.436;2023-03-23T03:46:47;2.72;;;1.60;;
78610;SDS011;67932;50.474;4.436;2023-03-23T03:49:14;4.10;;;1.52;;
78610;SDS011;67932;50.474;4.436;2023-03-23T03:51:41;4.85;;;1.83;;
78610;SDS011;67932;50.474;4.436;2023-03-23T03:54:07;4.85;;;1.55;;
78610;SDS011;67932;50.474;4.436;2023-03-23T03:56:33;2.20;;;1.50;;
78610;SDS011;67932;50.474;4.436;2023-03-23T03:59:05;4.07;;;1.75;;
78610;SDS011;67932;50.474;4.436;2023-03-23T04:01:31;4.05;;;1.40;;
78610;SDS011;67932;50.474;4.436;2023-03-23T04:03:58;4.78;;;1.13;;
78610;SDS011;67932;50.474;4.436;2023-03-23T04:06:24;2.47;;;1.23;;
78610;SDS011;67932;50.474;4.436;2023-03-23T04:08:53;1.90;;;1.40;;
78610;SDS011;67932;50.474;4.436;2023-03-23T04:11:20;4.03;;;1.30;;
78610;SDS011;67932;50.474;4.436;2023-03-23T04:13:47;3.08;;;1.40;;
78610;SDS011;67932;50.474;4.436;2023-03-23T04:16:13;1.88;;;1.20;;
78610;SDS011;67932;50.474;4.436;2023-03-23T04:18:41;3.17;;;1.20;;
78610;SDS011;67932;50.474;4.436;2023-03-23T04:21:08;4.60;;;1.70;;
78610;SDS011;67932;50.474;4.436;2023-03-23T04:23:34;4.43;;;1.58;;
78610;SDS011;67932;50.474;4.436;2023-03-23T04:26:01;2.85;;;1.17;;
78610;SDS011;67932;50.474;4.436;2023-03-23T04:28:28;3.15;;;1.17;;
78610;SDS011;67932;50.474;4.436;2023-03-23T04:30:54;2.88;;;1.30;;
78610;SDS011;67932;50.474;4.436;2023-03-23T04:33:24;3.85;;;1.58;;
78610;SDS011;67932;50.474;4.436;2023-03-23T04:35:54;4.05;;;1.45;;
78610;SDS011;67932;50.474;4.436;2023-03-23T04:38:21;4.40;;;1.30;;
78610;SDS011;67932;50.474;4.436;2023-03-23T04:40:49;5.18;;;1.63;;
78610;SDS011;67932;50.474;4.436;2023-03-23T04:43:16;3.45;;;1.17;;
78610;SDS011;67932;50.474;4.436;2023-03-23T04:45:46;1.75;;;1.00;;
78610;SDS011;67932;50.474;4.436;2023-03-23T04:48:12;3.70;;;1.38;;
78610;SDS011;67932;50.474;4.436;2023-03-23T04:50:39;2.40;;;1.23;;
78610;SDS011;67932;50.474;4.436;2023-03-23T04:53:05;7.15;;;1.52;;
78610;SDS011;67932;50.474;4.436;2023-03-23T04:55:32;2.20;;;1.45;;
78610;SDS011;67932;50.474;4.436;2023-03-23T04:58:07;2.90;;;1.27;;
78610;SDS011;67932;50.474;4.436;2023-03-23T05:02:59;3.28;;;1.30;;
78610;SDS011;67932;50.474;4.436;2023-03-23T05:05:25;2.03;;;1.42;;
78610;SDS011;67932;50.474;4.436;2023-03-23T05:07:52;2.72;;;1.60;;
78610;SDS011;67932;50.474;4.436;2023-03-23T05:10:18;2.83;;;1.30;;
78610;SDS011;67932;50.474;4.436;2023-03-23T05:12:44;4.28;;;1.50;;
78610;SDS011;67932;50.474;4.436;2023-03-23T05:15:11;3.45;;;1.30;;
78610;SDS011;67932;50.474;4.436;2023-03-23T05:17:38;3.35;;;1.35;;
78610;SDS011;67932;50.474;4.436;2023-03-23T05:20:06;3.90;;;1.13;;
78610;SDS011;67932;50.474;4.436;2023-03-23T05:22:36;3.78;;;1.30;;
78610;SDS011;67932;50.474;4.436;2023-03-23T05:25:03;1.65;;;1.10;;
78610;SDS011;67932;50.474;4.436;2023-03-23T05:27:30;2.20;;;1.23;;
78610;SDS011;67932;50.474;4.436;2023-03-23T05:29:57;3.35;;;1.55;;
78610;SDS011;67932;50.474;4.436;2023-03-23T05:32:25;2.42;;;1.50;;
78610;SDS011;67932;50.474;4.436;2023-03-23T05:34:53;1.75;;;1.25;;
78610;SDS011;67932;50.474;4.436;2023-03-23T05:37:20;3.97;;;1.92;;
78610;SDS011;67932;50.474;4.436;2023-03-23T05:39:46;9.55;;;1.77;;
78610;SDS011;67932;50.474;4.436;2023-03-23T05:42:12;3.50;;;1.23;;
78610;SDS011;67932;50.474;4.436;2023-03-23T05:44:38;2.42;;;1.20;;
78610;SDS011;67932;50.474;4.436;2023-03-23T05:47:04;2.90;;;1.30;;
78610;SDS011;67932;50.474;4.436;2023-03-23T05:49:30;2.75;;;1.38;;
78610;SDS011;67932;50.474;4.436;2023-03-23T05:51:56;2.35;;;1.40;;
78610;SDS011;67932;50.474;4.436;2023-03-23T05:54:22;3.45;;;1.50;;
78610;SDS011;67932;50.474;4.436;2023-03-23T05:56:48;4.20;;;1.45;;
78610;SDS011;67932;50.474;4.436;2023-03-23T05:59:14;5.28;;;1.35;;
78610;SDS011;67932;50.474;4.436;2023-03-23T06:01:40;7.07;;;1.65;;
78610;SDS011;67932;50.474;4.436;2023-03-23T06:04:06;3.45;;;1.55;;
78610;SDS011;67932;50.474;4.436;2023-03-23T06:06:34;2.25;;;1.20;;
78610;SDS011;67932;50.474;4.436;2023-03-23T06:09:01;2.92;;;1.08;;
78610;SDS011;67932;50.474;4.436;2023-03-23T06:11:28;6.65;;;1.73;;
78610;SDS011;67932;50.474;4.436;2023-03-23T06:13:54;2.45;;;1.23;;
78610;SDS011;67932;50.474;4.436;2023-03-23T06:16:22;5.93;;;0.98;;
78610;SDS011;67932;50.474;4.436;2023-03-23T06:18:49;2.70;;;1.40;;
78610;SDS011;67932;50.474;4.436;2023-03-23T06:21:15;2.20;;;1.13;;
78610;SDS011;67932;50.474;4.436;2023-03-23T06:23:43;3.47;;;1.35;;
78610;SDS011;67932;50.474;4.436;2023-03-23T06:26:10;2.30;;;1.27;;
78610;SDS011;67932;50.474;4.436;2023-03-23T06:28:39;2.13;;;1.60;;
78610;SDS011;67932;50.474;4.436;2023-03-23T06:31:05;1.25;;;0.98;;
78610;SDS011;67932;50.474;4.436;2023-03-23T06:33:33;3.97;;;1.40;;
78610;SDS011;67932;50.474;4.436;2023-03-23T06:35:59;3.83;;;1.38;;
78610;SDS011;67932;50.474;4.436;2023-03-23T06:38:25;2.65;;;0.93;;
78610;SDS011;67932;50.474;4.436;2023-03-23T06:40:54;4.70;;;1.27;;
78610;SDS011;67932;50.474;4.436;2023-03-23T06:43:21;5.15;;;1.27;;
78610;SDS011;67932;50.474;4.436;2023-03-23T06:45:48;2.42;;;1.23;;
78610;SDS011;67932;50.474;4.436;2023-03-23T06:48:15;2.85;;;1.25;;
78610;SDS011;67932;50.474;4.436;2023-03-23T06:50:44;3.15;;;1.13;;
78610;SDS011;67932;50.474;4.436;2023-03-23T06:53:11;2.97;;;1.98;;
78610;SDS011;67932;50.474;4.436;2023-03-23T06:55:37;2.17;;;1.38;;
78610;SDS011;67932;50.474;4.436;2023-03-23T06:58:04;4.63;;;1.30;;
78610;SDS011;67932;50.474;4.436;2023-03-23T07:00:31;5.15;;;1.42;;
78610;SDS011;67932;50.474;4.436;2023-03-23T07:02:57;3.03;;;1.40;;
78610;SDS011;67932;50.474;4.436;2023-03-23T07:05:23;6.53;;;1.70;;
78610;SDS011;67932;50.474;4.436;2023-03-23T07:07:50;3.60;;;1.23;;
78610;SDS011;67932;50.474;4.436;2023-03-23T07:10:16;5.03;;;1.65;;
78610;SDS011;67932;50.474;4.436;2023-03-23T07:12:42;4.18;;;1.83;;
78610;SDS011;67932;50.474;4.436;2023-03-23T07:15:08;2.80;;;1.30;;
78610;SDS011;67932;50.474;4.436;2023-03-23T07:17:36;2.33;;;1.60;;
78610;SDS011;67932;50.474;4.436;2023-03-23T07:20:03;3.67;;;1.30;;
78610;SDS011;67932;50.474;4.436;2023-03-23T07:22:29;4.05;;;1.80;;
78610;SDS011;67932;50.474;4.436;2023-03-23T07:24:56;3.03;;;1.30;;
78610;SDS011;67932;50.474;4.436;2023-03-23T07:27:22;3.17;;;1.35;;
78610;SDS011;67932;50.474;4.436;2023-03-23T07:29:48;3.90;;;1.67;;
78610;SDS011;67932;50.474;4.436;2023-03-23T07:32:14;2.35;;;1.40;;
78610;SDS011;67932;50.474;4.436;2023-03-23T07:34:40;1.67;;;1.45;;
78610;SDS011;67932;50.474;4.436;2023-03-23T07:37:06;3.80;;;1.38;;
78610;SDS011;67932;50.474;4.436;2023-03-23T07:39:32;2.35;;;1.35;;
78610;SDS011;67932;50.474;4.436;2023-03-23T07:41:59;2.63;;;1.20;;
78610;SDS011;67932;50.474;4.436;2023-03-23T07:44:25;6.05;;;1.40;;
78610;SDS011;67932;50.474;4.436;2023-03-23T07:46:51;4.43;;;2.08;;
78610;SDS011;67932;50.474;4.436;2023-03-23T07:49:17;2.85;;;1.50;;
78610;SDS011;67932;50.474;4.436;2023-03-23T07:51:44;5.00;;;1.60;;
78610;SDS011;67932;50.474;4.436;2023-03-23T07:54:10;6.18;;;1.38;;
78610;SDS011;67932;50.474;4.436;2023-03-23T07:56:36;2.17;;;1.15;;
78610;SDS011;67932;50.474;4.436;2023-03-23T07:59:05;3.15;;;1.55;;
78610;SDS011;67932;50.474;4.436;2023-03-23T08:01:31;3.45;;;1.50;;
78610;SDS011;67932;50.474;4.436;2023-03-23T08:03:58;3.15;;;1.33;;
78610;SDS011;67932;50.474;4.436;2023-03-23T08:06:25;5.88;;;1.83;;
78610;SDS011;67932;50.474;4.436;2023-03-23T08:08:51;3.40;;;1.80;;
78610;SDS011;67932;50.474;4.436;2023-03-23T08:11:18;3.95;;;1.58;;
78610;SDS011;67932;50.474;4.436;2023-03-23T08:13:44;2.72;;;1.40;;
78610;SDS011;67932;50.474;4.436;2023-03-23T08:16:11;2.60;;;1.00;;
78610;SDS011;67932;50.474;4.436;2023-03-23T08:18:38;2.28;;;0.93;;
78610;SDS011;67932;50.474;4.436;2023-03-23T08:21:05;4.03;;;0.90;;
78610;SDS011;67932;50.474;4.436;2023-03-23T08:23:33;4.47;;;1.30;;
78610;SDS011;67932;50.474;4.436;2023-03-23T08:25:59;1.95;;;1.35;;
78610;SDS011;67932;50.474;4.436;2023-03-23T08:28:26;2.45;;;1.38;;
78610;SDS011;67932;50.474;4.436;2023-03-23T08:30:52;5.80;;;1.90;;
78610;SDS011;67932;50.474;4.436;2023-03-23T08:33:18;4.57;;;2.10;;
78610;SDS011;67932;50.474;4.436;2023-03-23T08:35:53;5.35;;;2.33;;
78610;SDS011;67932;50.474;4.436;2023-03-23T08:38:19;8.40;;;2.83;;
78610;SDS011;67932;50.474;4.436;2023-03-23T08:40:46;6.57;;;2.45;;
78610;SDS011;67932;50.474;4.436;2023-03-23T08:43:13;7.65;;;2.60;;
78610;SDS011;67932;50.474;4.436;2023-03-23T08:45:40;6.25;;;3.83;;
78610;SDS011;67932;50.474;4.436;2023-03-23T08:48:06;5.80;;;2.85;;
78610;SDS011;67932;50.474;4.436;2023-03-23T08:50:33;5.15;;;2.58;;
78610;SDS011;67932;50.474;4.436;2023-03-23T08:53:00;4.85;;;2.42;;
78610;SDS011;67932;50.474;4.436;2023-03-23T08:55:26;4.40;;;1.80;;
78610;SDS011;67932;50.474;4.436;2023-03-23T08:57:54;5.05;;;3.35;;
78610;SDS011;67932;50.474;4.436;2023-03-23T09:00:21;11.18;;;5.53;;
78610;SDS011;67932;50.474;4.436;2023-03-23T09:02:50;8.27;;;4.20;;
78610;SDS011;67932;50.474;4.436;2023-03-23T09:05:17;6.28;;;2.92;;
78610;SDS011;67932;50.474;4.436;2023-03-23T09:07:45;5.18;;;2.15;;
78610;SDS011;67932;50.474;4.436;2023-03-23T09:10:11;12.18;;;7.25;;
78610;SDS011;67932;50.474;4.436;2023-03-23T09:12:38;5.00;;;4.20;;
78610;SDS011;67932;50.474;4.436;2023-03-23T09:15:05;4.93;;;2.88;;
78610;SDS011;67932;50.474;4.436;2023-03-23T09:17:41;4.68;;;2.63;;
78610;SDS011;67932;50.474;4.436;2023-03-23T09:20:08;7.40;;;2.33;;
78610;SDS011;67932;50.474;4.436;2023-03-23T09:22:46;3.15;;;2.00;;
78610;SDS011;67932;50.474;4.436;2023-03-23T09:25:13;7.25;;;2.03;;
78610;SDS011;67932;50.474;4.436;2023-03-23T09:27:41;4.72;;;2.80;;
78610;SDS011;67932;50.474;4.436;2023-03-23T09:30:10;7.85;;;3.10;;
78610;SDS011;67932;50.474;4.436;2023-03-23T09:32:36;10.43;;;4.30;;
78610;SDS011;67932;50.474;4.436;2023-03-23T09:35:04;4.07;;;2.50;;
78610;SDS011;67932;50.474;4.436;2023-03-23T09:37:33;5.55;;;2.00;;
78610;SDS011;67932;50.474;4.436;2023-03-23T09:40:01;4.03;;;2.00;;
78610;SDS011;67932;50.474;4.436;2023-03-23T09:45:19;2.78;;;2.20;;
78610;SDS011;67932;50.474;4.436;2023-03-23T09:48:00;4.43;;;2.63;;
78610;SDS011;67932;50.474;4.436;2023-03-23T09:50:30;3.88;;;1.42;;
78610;SDS011;67932;50.474;4.436;2023-03-23T09:53:00;3.67;;;2.03;;
78610;SDS011;67932;50.474;4.436;2023-03-23T09:55:28;6.15;;;1.77;;
78610;SDS011;67932;50.474;4.436;2023-03-23T09:58:02;3.20;;;1.60;;
78610;SDS011;67932;50.474;4.436;2023-03-23T10:00:34;3.10;;;1.58;;
78610;SDS011;67932;50.474;4.436;2023-03-23T10:08:00;5.28;;;1.98;;
78610;SDS011;67932;50.474;4.436;2023-03-23T10:10:36;3.20;;;1.85;;
78610;SDS011;67932;50.474;4.436;2023-03-23T10:13:09;3.85;;;1.52;;
78610;SDS011;67932;50.474;4.436;2023-03-23T10:18:04;4.75;;;1.35;;
78610;SDS011;67932;50.474;4.436;2023-03-23T10:25:29;7.20;;;1.95;;
78610;SDS011;67932;50.474;4.436;2023-03-23T10:30:40;3.20;;;2.00;;
78610;SDS011;67932;50.474;4.436;2023-03-23T10:33:16;2.60;;;1.55;;
78610;SDS011;67932;50.474;4.436;2023-03-23T10:39:00;3.30;;;1.45;;
78610;SDS011;67932;50.474;4.436;2023-03-23T10:41:24;4.47;;;1.23;;
78610;SDS011;67932;50.474;4.436;2023-03-23T10:43:50;3.55;;;1.50;;
78610;SDS011;67932;50.474;4.436;2023-03-23T10:48:45;3.60;;;1.50;;
78610;SDS011;67932;50.474;4.436;2023-03-23T10:51:15;2.92;;;1.20;;
78610;SDS011;67932;50.474;4.436;2023-03-23T10:53:43;3.65;;;1.33;;
78610;SDS011;67932;50.474;4.436;2023-03-23T10:56:23;5.47;;;2.20;;
78610;SDS011;67932;50.474;4.436;2023-03-23T10:58:49;10.25;;;4.10;;
78610;SDS011;67932;50.474;4.436;2023-03-23T11:01:18;3.03;;;1.42;;
78610;SDS011;67932;50.474;4.436;2023-03-23T11:03:45;2.30;;;1.38;;
78610;SDS011;67932;50.474;4.436;2023-03-23T11:06:23;5.22;;;1.90;;
78610;SDS011;67932;50.474;4.436;2023-03-23T11:08:54;2.50;;;0.93;;
78610;SDS011;67932;50.474;4.436;2023-03-23T11:11:31;2.03;;;1.20;;
78610;SDS011;67932;50.474;4.436;2023-03-23T11:13:58;2.70;;;1.20;;
78610;SDS011;67932;50.474;4.436;2023-03-23T11:16:29;3.15;;;1.15;;
78610;SDS011;67932;50.474;4.436;2023-03-23T11:18:56;2.63;;;1.20;;
78610;SDS011;67932;50.474;4.436;2023-03-23T11:21:23;2.60;;;1.23;;
78610;SDS011;67932;50.474;4.436;2023-03-23T11:23:51;6.60;;;1.58;;
78610;SDS011;67932;50.474;4.436;2023-03-23T11:26:25;2.67;;;1.63;;
78610;SDS011;67932;50.474;4.436;2023-03-23T11:31:23;4.63;;;1.30;;
78610;SDS011;67932;50.474;4.436;2023-03-23T11:33:52;3.97;;;1.15;;
78610;SDS011;67932;50.474;4.436;2023-03-23T11:36:19;2.25;;;1.13;;
78610;SDS011;67932;50.474;4.436;2023-03-23T11:38:51;4.45;;;1.40;;
78610;SDS011;67932;50.474;4.436;2023-03-23T11:41:21;3.30;;;1.25;;
78610;SDS011;67932;50.474;4.436;2023-03-23T11:43:50;5.07;;;1.00;;
78610;SDS011;67932;50.474;4.436;2023-03-23T11:46:33;2.28;;;0.82;;
78610;SDS011;67932;50.474;4.436;2023-03-23T11:49:04;7.25;;;0.88;;
78610;SDS011;67932;50.474;4.436;2023-03-23T11:51:47;5.63;;;1.25;;
78610;SDS011;67932;50.474;4.436;2023-03-23T11:55:19;3.47;;;1.50;;
78610;SDS011;67932;50.474;4.436;2023-03-23T11:57:32;4.63;;;1.90;;
78610;SDS011;67932;50.474;4.436;2023-03-23T11:59:58;4.85;;;2.10;;
78610;SDS011;67932;50.474;4.436;2023-03-23T12:07:50;4.28;;;2.17;;
78610;SDS011;67932;50.474;4.436;2023-03-23T12:10:27;3.50;;;1.83;;
78610;SDS011;67932;50.474;4.436;2023-03-23T12:15:47;4.82;;;2.20;;
78610;SDS011;67932;50.474;4.436;2023-03-23T12:25:49;8.10;;;2.25;;
78610;SDS011;67932;50.474;4.436;2023-03-23T12:30:59;5.85;;;3.00;;
78610;SDS011;67932;50.474;4.436;2023-03-23T12:33:45;4.00;;;2.05;;
78610;SDS011;67932;50.474;4.436;2023-03-23T12:39:06;5.63;;;2.40;;
78610;SDS011;67932;50.474;4.436;2023-03-23T12:44:29;4.38;;;2.05;;
78610;SDS011;67932;50.474;4.436;2023-03-23T12:49:31;4.53;;;2.40;;
78610;SDS011;67932;50.474;4.436;2023-03-23T13:02:10;5.25;;;2.08;;
78610;SDS011;67932;50.474;4.436;2023-03-23T13:04:46;3.08;;;1.85;;
78610;SDS011;67932;50.474;4.436;2023-03-23T13:07:18;3.70;;;1.98;;
78610;SDS011;67932;50.474;4.436;2023-03-23T13:12:49;4.50;;;2.08;;
78610;SDS011;67932;50.474;4.436;2023-03-23T13:23:10;4.90;;;1.98;;
78610;SDS011;67932;50.474;4.436;2023-03-23T13:25:50;11.23;;;2.92;;
78610;SDS011;67932;50.474;4.436;2023-03-23T13:28:18;6.60;;;2.28;;
78610;SDS011;67932;50.474;4.436;2023-03-23T13:30:53;4.93;;;1.88;;
78610;SDS011;67932;50.474;4.436;2023-03-23T13:33:20;11.00;;;2.42;;
78610;SDS011;67932;50.474;4.436;2023-03-23T13:35:55;5.55;;;2.22;;
78610;SDS011;67932;50.474;4.436;2023-03-23T13:38:24;5.38;;;2.60;;
78610;SDS011;67932;50.474;4.436;2023-03-23T13:40:51;3.83;;;2.40;;
78610;SDS011;67932;50.474;4.436;2023-03-23T13:43:25;5.70;;;2.22;;
78610;SDS011;67932;50.474;4.436;2023-03-23T13:45:52;7.35;;;3.70;;
78610;SDS011;67932;50.474;4.436;2023-03-23T13:48:22;6.90;;;1.98;;
78610;SDS011;67932;50.474;4.436;2023-03-23T13:50:55;4.38;;;2.10;;
78610;SDS011;67932;50.474;4.436;2023-03-23T13:53:26;4.70;;;2.30;;
78610;SDS011;67932;50.474;4.436;2023-03-23T13:56:16;6.57;;;2.30;;
78610;SDS011;67932;50.474;4.436;2023-03-23T13:58:48;9.15;;;2.30;;
78610;SDS011;67932;50.474;4.436;2023-03-23T14:01:16;8.07;;;2.47;;
78610;SDS011;67932;50.474;4.436;2023-03-23T14:03:44;5.97;;;2.55;;
78610;SDS011;67932;50.474;4.436;2023-03-23T14:06:15;4.47;;;2.10;;
78610;SDS011;67932;50.474;4.436;2023-03-23T14:08:43;4.85;;;1.90;;
78610;SDS011;67932;50.474;4.436;2023-03-23T14:11:12;4.60;;;1.60;;
78610;SDS011;67932;50.474;4.436;2023-03-23T14:16:24;4.10;;;1.60;;
78610;SDS011;67932;50.474;4.436;2023-03-23T14:19:01;6.85;;;1.85;;
78610;SDS011;67932;50.474;4.436;2023-03-23T14:21:39;5.75;;;2.63;;
78610;SDS011;67932;50.474;4.436;2023-03-23T14:24:09;3.08;;;1.23;;
78610;SDS011;67932;50.474;4.436;2023-03-23T14:26:36;5.88;;;1.80;;
78610;SDS011;67932;50.474;4.436;2023-03-23T14:29:03;10.68;;;2.13;;
78610;SDS011;67932;50.474;4.436;2023-03-23T14:34:34;5.60;;;2.00;;
78610;SDS011;67932;50.474;4.436;2023-03-23T14:37:00;6.15;;;2.00;;
78610;SDS011;67932;50.474;4.436;2023-03-23T14:39:28;8.77;;;2.78;;
78610;SDS011;67932;50.474;4.436;2023-03-23T14:42:09;5.65;;;2.60;;
78610;SDS011;67932;50.474;4.436;2023-03-23T14:44:44;5.78;;;2.28;;
78610;SDS011;67932;50.474;4.436;2023-03-23T14:47:13;3.60;;;1.73;;
78610;SDS011;67932;50.474;4.436;2023-03-23T14:49:42;5.75;;;1.88;;
78610;SDS011;67932;50.474;4.436;2023-03-23T14:52:10;4.90;;;1.83;;
78610;SDS011;67932;50.474;4.436;2023-03-23T14:54:36;4.18;;;1.67;;
78610;SDS011;67932;50.474;4.436;2023-03-23T14:59:39;4.45;;;2.15;;
78610;SDS011;67932;50.474;4.436;2023-03-23T15:02:05;3.67;;;1.58;;
78610;SDS011;67932;50.474;4.436;2023-03-23T15:04:35;7.65;;;2.03;;
78610;SDS011;67932;50.474;4.436;2023-03-23T15:07:02;4.65;;;1.98;;
78610;SDS011;67932;50.474;4.436;2023-03-23T15:09:29;5.60;;;2.00;;
78610;SDS011;67932;50.474;4.436;2023-03-23T15:11:57;6.13;;;2.45;;
78610;SDS011;67932;50.474;4.436;2023-03-23T15:14:32;5.18;;;2.00;;
78610;SDS011;67932;50.474;4.436;2023-03-23T15:19:45;6.15;;;1.77;;
78610;SDS011;67932;50.474;4.436;2023-03-23T15:24:41;6.07;;;2.20;;
78610;SDS011;67932;50.474;4.436;2023-03-23T15:29:34;5.05;;;2.20;;
78610;SDS011;67932;50.474;4.436;2023-03-23T15:32:11;3.85;;;1.75;;
78610;SDS011;67932;50.474;4.436;2023-03-23T15:34:37;4.05;;;1.90;;
78610;SDS011;67932;50.474;4.436;2023-03-23T15:37:05;4.70;;;1.65;;
78610;SDS011;67932;50.474;4.436;2023-03-23T15:39:32;5.93;;;1.80;;
78610;SDS011;67932;50.474;4.436;2023-03-23T15:41:58;6.10;;;2.00;;
78610;SDS011;67932;50.474;4.436;2023-03-23T15:44:27;4.53;;;1.80;;
78610;SDS011;67932;50.474;4.436;2023-03-23T15:47:01;3.55;;;1.10;;
78610;SDS011;67932;50.474;4.436;2023-03-23T15:49:28;4.97;;;1.73;;
78610;SDS011;67932;50.474;4.436;2023-03-23T15:51:54;5.88;;;1.30;;
78610;SDS011;67932;50.474;4.436;2023-03-23T15:54:20;4.22;;;1.23;;
78610;SDS011;67932;50.474;4.436;2023-03-23T15:56:46;4.18;;;1.55;;
78610;SDS011;67932;50.474;4.436;2023-03-23T15:59:12;7.85;;;1.75;;
78610;SDS011;67932;50.474;4.436;2023-03-23T16:01:39;4.65;;;1.42;;
78610;SDS011;67932;50.474;4.436;2023-03-23T16:06:32;7.00;;;1.70;;
78610;SDS011;67932;50.474;4.436;2023-03-23T16:08:59;2.88;;;1.38;;
78610;SDS011;67932;50.474;4.436;2023-03-23T16:11:28;7.18;;;2.00;;
78610;SDS011;67932;50.474;4.436;2023-03-23T16:13:55;6.93;;;2.00;;
78610;SDS011;67932;50.474;4.436;2023-03-23T16:16:22;9.50;;;1.83;;
78610;SDS011;67932;50.474;4.436;2023-03-23T16:18:50;4.20;;;2.30;;
78610;SDS011;67932;50.474;4.436;2023-03-23T16:21:16;6.72;;;1.70;;
78610;SDS011;67932;50.474;4.436;2023-03-23T16:23:42;4.10;;;1.90;;
78610;SDS011;67932;50.474;4.436;2023-03-23T16:26:10;7.80;;;2.22;;
78610;SDS011;67932;50.474;4.436;2023-03-23T16:28:36;6.78;;;1.88;;
78610;SDS011;67932;50.474;4.436;2023-03-23T16:31:02;4.82;;;2.10;;
78610;SDS011;67932;50.474;4.436;2023-03-23T16:33:28;7.45;;;2.15;;
78610;SDS011;67932;50.474;4.436;2023-03-23T16:35:54;6.03;;;1.90;;
78610;SDS011;67932;50.474;4.436;2023-03-23T16:38:22;5.50;;;2.13;;
78610;SDS011;67932;50.474;4.436;2023-03-23T16:40:48;5.28;;;1.73;;
78610;SDS011;67932;50.474;4.436;2023-03-23T16:43:14;5.30;;;1.63;;
78610;SDS011;67932;50.474;4.436;2023-03-23T16:45:41;6.47;;;1.75;;
78610;SDS011;67932;50.474;4.436;2023-03-23T16:48:08;4.20;;;1.80;;